Time;durP1;ratioP1;P1;durP2;ratioP2;P2;SDS_P1;SDS_P2;PMS_P1;PMS_P2;Temp;Humidity;BMP_temperature;BMP_pressure;BME280_temperature;BME280_humidity;BME280_pressure;Samples;Min_cycle;Max_cycle;Signal;HPM_P1;HPM_P2
2022/09/26 00:02:01;;;;;;;17.23;3.30;;;;;;;15.66;64.74;100088.03;4948767;28;119301;-72
2022/09/26 00:04:27;;;;;;;32.93;3.93;;;;;;;15.65;64.30;100072.72;4952374;28;119815;-71
2022/09/26 00:06:55;;;;;;;23.98;3.20;;;;;;;15.65;64.78;100073.47;4947666;28;119414;-72
2022/09/26 00:09:23;;;;;;;14.73;3.47;;;;;;;15.63;64.89;100062.16;4930838;28;120351;-72
2022/09/26 00:11:49;;;;;;;18.38;3.55;;;;;;;15.68;64.51;100063.41;4949322;28;119408;-71
2022/09/26 00:14:19;;;;;;;25.33;3.60;;;;;;;15.69;64.54;100061.41;4953537;28;119818;-72
2022/09/26 00:16:45;;;;;;;39.95;4.50;;;;;;;15.71;64.50;100058.88;4932874;28;123300;-71
2022/09/26 00:19:11;;;;;;;39.63;4.18;;;;;;;15.73;64.87;100056.38;4950003;28;119926;-71
2022/09/26 00:21:37;;;;;;;39.92;4.68;;;;;;;15.72;64.60;100052.84;4948705;28;119845;-72
2022/09/26 00:24:23;;;;;;;26.50;4.30;;;;;;;15.72;64.62;100052.84;4947591;28;120062;-72
2022/09/26 00:26:49;;;;;;;48.93;4.70;;;;;;;15.72;65.17;100036.28;4954696;28;120537;-72
2022/09/26 00:29:14;;;;;;;30.52;4.22;;;;;;;15.70;64.77;100032.50;4947643;28;120083;-72
2022/09/26 00:31:43;;;;;;;21.23;4.55;;;;;;;15.69;65.48;100028.97;4947993;28;120773;-71
2022/09/26 00:34:15;;;;;;;43.00;4.97;;;;;;;15.68;64.97;100018.41;4953842;28;119624;-72
2022/09/26 00:36:41;;;;;;;33.53;4.80;;;;;;;15.72;65.11;100022.44;4933543;28;120546;-72
2022/09/26 00:39:10;;;;;;;15.43;4.13;;;;;;;15.74;64.96;100014.41;4980562;28;120260;-72
2022/09/26 00:41:37;;;;;;;8.80;3.58;;;;;;;15.75;64.67;100004.84;4949816;28;119490;-72
2022/09/26 00:44:32;;;;;;;32.10;4.47;;;;;;;15.73;65.07;99995.56;4953948;28;120158;-72
2022/09/26 00:46:58;;;;;;;17.98;4.00;;;;;;;15.72;64.98;99992.03;4948220;28;119371;-72
2022/09/26 00:49:40;;;;;;;25.73;3.83;;;;;;;15.75;65.34;99993.78;4951043;28;120786;-72
2022/09/26 00:52:14;;;;;;;22.15;4.22;;;;;;;15.77;65.26;99979.47;4962096;28;120005;-72
2022/09/26 00:54:48;;;;;;;43.67;4.50;;;;;;;15.74;65.25;99970.16;4948153;28;120223;-72
2022/09/26 00:57:30;;;;;;;29.40;4.32;;;;;;;15.78;65.57;99970.66;4943968;28;119914;-72
2022/09/26 01:00:00;;;;;;;13.38;3.35;;;;;;;15.80;64.90;99965.38;4950187;28;119412;-72
2022/09/26 01:02:27;;;;;;;26.50;3.90;;;;;;;15.78;65.51;99958.84;4947802;28;120161;-72
2022/09/26 01:04:55;;;;;;;15.90;3.05;;;;;;;15.82;64.94;99959.34;4947033;28;120395;-72
2022/09/26 01:07:24;;;;;;;19.83;3.53;;;;;;;15.82;65.25;99960.09;4925991;28;119594;-71
2022/09/26 01:09:51;;;;;;;13.60;3.10;;;;;;;15.82;64.75;99945.50;4948812;28;119559;-72
2022/09/26 01:12:18;;;;;;;26.70;3.20;;;;;;;15.81;65.09;99952.31;4951293;28;121147;-72
2022/09/26 01:14:49;;;;;;;29.85;3.38;;;;;;;15.81;65.08;99941.25;4946994;28;119714;-72
2022/09/26 01:17:15;;;;;;;48.73;4.00;;;;;;;15.80;65.83;99937.72;4947255;28;122115;-71
2022/09/26 01:20:10;;;;;;;30.55;3.63;;;;;;;15.86;65.52;99938.50;4948938;28;119332;-71
2022/09/26 01:23:12;;;;;;;34.58;4.07;;;;;;;15.91;65.34;99936.97;4947668;28;119883;-72
2022/09/26 01:26:03;;;;;;;15.70;3.00;;;;;;;15.89;65.21;99937.47;4926727;28;121055;-72
2022/09/26 01:28:55;;;;;;;32.00;3.87;;;;;;;15.89;65.14;99928.44;4929678;28;119974;-72
2022/09/26 01:32:47;;;;;;;13.45;3.10;;;;;;;15.90;65.45;99935.47;4972033;28;119912;-72
2022/09/26 01:34:59;;;;;;;25.87;3.43;;;;;;;15.90;65.90;99927.94;4938822;28;119488;-71
2022/09/26 01:37:36;;;;;;;26.93;3.97;;;;;;;15.91;65.83;99925.91;4951494;28;120649;-72
2022/09/26 01:40:24;;;;;;;13.45;3.20;;;;;;;15.93;65.80;99917.88;4934285;28;120328;-72
2022/09/26 01:43:15;;;;;;;17.55;3.30;;;;;;;15.93;65.79;99915.09;4948830;28;119998;-72
2022/09/26 01:46:00;;;;;;;28.17;3.90;;;;;;;15.93;66.04;99918.63;4925743;28;119778;-71
2022/09/26 01:48:43;;;;;;;19.20;3.63;;;;;;;15.96;66.30;99920.38;4946544;28;120092;-72
2022/09/26 01:51:57;;;;;;;34.78;4.40;;;;;;;15.99;66.55;99915.06;4934847;28;120035;-72
2022/09/26 01:54:36;;;;;;;22.30;3.93;;;;;;;15.96;66.34;99901.00;4929723;28;120262;-72
2022/09/26 01:57:05;;;;;;;21.15;3.92;;;;;;;16.00;66.79;99911.81;4944901;28;119917;-72
2022/09/26 01:59:38;;;;;;;22.23;3.90;;;;;;;16.00;66.11;99911.06;4944496;28;120030;-72
2022/09/26 02:02:17;;;;;;;24.95;3.65;;;;;;;16.01;66.63;99904.25;4949879;28;119627;-72
2022/09/26 02:04:47;;;;;;;34.78;4.10;;;;;;;16.03;66.68;99896.22;4947798;28;119809;-72
2022/09/26 02:07:30;;;;;;;17.40;3.58;;;;;;;16.02;66.37;99892.69;4930401;28;119818;-72
2022/09/26 02:10:15;;;;;;;10.10;3.77;;;;;;;16.00;66.66;99892.44;4946529;28;120066;-72
2022/09/26 02:12:47;;;;;;;22.55;4.00;;;;;;;16.02;66.41;99883.63;4954237;28;119941;-72
2022/09/26 02:15:16;;;;;;;28.00;4.43;;;;;;;16.03;66.69;99879.59;4947265;28;120211;-71
2022/09/26 02:17:57;;;;;;;43.78;4.53;;;;;;;16.01;66.72;99871.06;4930536;28;121881;-72
2022/09/26 02:20:30;;;;;;;34.30;4.63;;;;;;;16.01;66.69;99874.59;4930910;28;119906;-72
2022/09/26 02:22:58;;;;;;;34.17;4.32;;;;;;;15.98;67.07;99866.56;4964382;28;119866;-72
2022/09/26 02:25:25;;;;;;;18.30;4.15;;;;;;;15.98;66.56;99861.03;4946957;28;120090;-72
2022/09/26 02:27:50;;;;;;;38.47;4.97;;;;;;;15.98;66.69;99853.47;4932931;28;120278;-72
2022/09/26 02:30:16;;;;;;;41.83;5.13;;;;;;;15.96;66.62;99848.47;4946666;28;119794;-72
2022/09/26 02:32:42;;;;;;;40.85;4.78;;;;;;;15.93;66.66;99838.41;4947354;28;119590;-72
2022/09/26 02:37:54;;;;;;;35.75;4.63;;;;;;;15.92;67.13;99831.38;4945565;28;119869;-72
2022/09/26 02:40:53;;;;;;;43.60;4.63;;;;;;;15.94;67.23;99820.56;4892235;28;120042;-71
2022/09/26 02:43:46;;;;;;;33.78;4.72;;;;;;;15.95;67.63;99819.28;4941958;28;119859;-72
2022/09/26 02:46:37;;;;;;;18.37;3.43;;;;;;;15.95;67.40;99818.53;4948820;28;119879;-72
2022/09/26 02:49:44;;;;;;;21.93;4.70;;;;;;;15.92;67.29;99806.50;4943204;28;119802;-72
2022/09/26 02:52:33;;;;;;;35.22;5.07;;;;;;;15.94;67.69;99806.72;4926870;28;121894;-71
2022/09/26 02:55:20;;;;;;;18.13;3.80;;;;;;;15.99;68.04;99798.91;4942565;28;120241;-72
2022/09/26 02:58:11;;;;;;;35.25;4.82;;;;;;;16.01;67.75;99794.38;4928704;28;120028;-71
2022/09/26 03:00:53;;;;;;;17.67;3.85;;;;;;;16.03;67.60;99791.84;4950865;28;120325;-71
2022/09/26 03:03:43;;;;;;;39.77;4.97;;;;;;;16.01;67.69;99782.56;4950036;28;119578;-72
2022/09/26 03:06:14;;;;;;;40.08;4.97;;;;;;;16.07;68.26;99781.28;4946145;28;119650;-72
2022/09/26 03:08:46;;;;;;;46.67;4.60;;;;;;;16.06;67.82;99765.19;4945727;28;120209;-72
2022/09/26 03:11:15;;;;;;;30.75;4.40;;;;;;;16.14;67.71;99768.94;4933774;28;119658;-72
2022/09/26 03:13:41;;;;;;;55.45;5.90;;;;;;;16.15;67.90;99771.19;4945257;28;119952;-72
2022/09/26 03:16:11;;;;;;;55.13;5.82;;;;;;;16.12;68.08;99755.63;4928043;28;120316;-71
2022/09/26 03:18:59;;;;;;;38.60;4.70;;;;;;;16.17;67.84;99757.59;4947083;28;119829;-72
2022/09/26 03:21:26;;;;;;;54.63;5.53;;;;;;;16.16;67.58;99747.78;4929616;28;120155;-71
2022/09/26 03:23:56;;;;;;;53.67;5.30;;;;;;;16.17;67.40;99737.47;4945846;28;120387;-71
2022/09/26 03:26:26;;;;;;;23.75;4.88;;;;;;;16.11;67.70;99723.69;4945856;28;120228;-72
2022/09/26 03:28:56;;;;;;;30.23;5.90;;;;;;;16.12;67.64;99735.50;4945914;28;119948;-72
2022/09/26 03:31:27;;;;;;;15.45;5.10;;;;;;;16.10;67.78;99733.25;4922431;28;119554;-71
2022/09/26 03:34:16;;;;;;;37.10;6.90;;;;;;;16.13;68.64;99720.41;4949146;28;119922;-72
2022/09/26 03:36:42;;;;;;;47.28;6.40;;;;;;;16.14;68.19;99714.34;4929302;28;120060;-72
2022/09/26 03:39:10;;;;;;;24.15;6.68;;;;;;;16.16;68.37;99705.53;4945973;28;119651;-72
2022/09/26 03:41:54;;;;;;;38.72;8.13;;;;;;;16.14;68.20;99703.28;4923213;28;119485;-71
2022/09/26 03:44:28;;;;;;;22.35;6.45;;;;;;;16.16;67.92;99702.78;4945632;28;119707;-71
2022/09/26 03:47:29;;;;;;;31.15;6.47;;;;;;;16.16;69.09;99702.78;4930371;28;119794;-72
2022/09/26 03:49:55;;;;;;;18.52;6.15;;;;;;;16.21;68.73;99682.63;4936959;28;120017;-71
2022/09/26 03:52:21;;;;;;;35.55;7.95;;;;;;;16.16;68.04;99695.22;4945656;28;119930;-72
2022/09/26 03:54:48;;;;;;;23.00;7.30;;;;;;;16.16;68.28;99684.16;4944931;28;119714;-72
2022/09/26 03:57:18;;;;;;;46.33;7.47;;;;;;;16.19;68.51;99682.38;4931157;28;120206;-71
2022/09/26 03:59:49;;;;;;;56.42;10.85;;;;;;;16.23;68.71;99680.84;4943477;28;119742;-72
2022/09/26 04:02:16;;;;;;;18.92;5.80;;;;;;;16.23;68.02;99678.06;4954722;28;119938;-72
2022/09/26 04:04:45;;;;;;;21.13;6.73;;;;;;;16.24;68.42;99667.75;4946113;28;119453;-72
2022/09/26 04:07:13;;;;;;;29.77;8.70;;;;;;;16.24;68.28;99668.50;4945018;28;119886;-72
2022/09/26 04:09:39;;;;;;;22.30;8.68;;;;;;;16.21;67.83;99663.25;4952221;28;120145;-72
2022/09/26 04:12:06;;;;;;;20.88;8.77;;;;;;;16.11;67.63;99645.47;4946640;28;119887;-71
2022/09/26 04:14:34;;;;;;;37.72;9.45;;;;;;;16.11;68.14;99651.75;4941673;28;120075;-72
2022/09/26 04:17:00;;;;;;;36.65;9.48;;;;;;;16.09;68.19;99648.75;4945292;28;121562;-71
2022/09/26 04:19:31;;;;;;;41.40;9.68;;;;;;;16.12;68.09;99644.97;4948649;28;119868;-72
2022/09/26 04:21:58;;;;;;;28.83;8.63;;;;;;;16.10;68.29;99646.75;4929295;28;120542;-72
2022/09/26 04:24:24;;;;;;;40.60;9.20;;;;;;;16.09;68.23;99645.22;4932726;28;120359;-72
2022/09/26 04:26:49;;;;;;;21.17;8.20;;;;;;;16.06;68.19;99637.94;4948172;28;119875;-72
2022/09/26 04:29:16;;;;;;;44.72;8.52;;;;;;;16.05;68.05;99639.97;4945901;28;120940;-72
2022/09/26 04:32:01;;;;;;;48.83;8.82;;;;;;;16.07;68.41;99625.63;4947823;28;120229;-72
2022/09/26 04:34:44;;;;;;;34.63;7.97;;;;;;;16.04;68.43;99632.94;4939361;28;119578;-72
2022/09/26 04:37:12;;;;;;;50.10;8.20;;;;;;;16.03;68.15;99627.91;4947543;28;120008;-72
2022/09/26 04:39:37;;;;;;;22.27;7.20;;;;;;;16.04;68.20;99621.88;4948645;28;119665;-71
2022/09/26 04:42:03;;;;;;;28.93;7.70;;;;;;;15.99;68.76;99606.06;4955114;28;119845;-71
2022/09/26 04:44:29;;;;;;;30.57;7.23;;;;;;;16.06;68.33;99616.56;4949412;28;120041;-72
2022/09/26 04:46:55;;;;;;;24.33;7.00;;;;;;;16.05;68.33;99608.78;4948436;28;119555;-72
2022/09/26 04:49:29;;;;;;;34.47;6.97;;;;;;;16.07;68.96;99603.50;4950730;28;120448;-72
2022/09/26 04:51:55;;;;;;;31.75;6.95;;;;;;;16.08;68.69;99608.50;4944403;28;119873;-71
2022/09/26 04:54:22;;;;;;;15.93;5.80;;;;;;;16.07;68.42;99603.50;4946897;28;119753;-72
2022/09/26 04:56:51;;;;;;;25.55;6.32;;;;;;;16.11;68.54;99598.47;4942366;28;119849;-72
2022/09/26 04:59:16;;;;;;;20.52;6.22;;;;;;;16.13;68.46;99596.69;4946426;28;119994;-72
2022/09/26 05:01:51;;;;;;;28.63;6.00;;;;;;;16.12;68.70;99597.19;4951058;28;119728;-72
2022/09/26 05:04:23;;;;;;;38.75;6.05;;;;;;;16.13;68.64;99593.91;4938227;28;119661;-72
2022/09/26 05:06:49;;;;;;;30.38;5.72;;;;;;;16.15;68.63;99583.06;4948286;28;119848;-72
2022/09/26 05:09:24;;;;;;;55.23;6.20;;;;;;;16.17;68.46;99590.84;4944517;28;120553;-71
2022/09/26 05:11:58;;;;;;;35.92;5.22;;;;;;;16.18;68.56;99578.53;4947928;28;119689;-72
2022/09/26 05:14:27;;;;;;;18.63;4.18;;;;;;;16.21;68.58;99574.72;4979336;28;119698;-72
2022/09/26 05:16:52;;;;;;;28.08;4.97;;;;;;;16.22;68.85;99576.22;4946283;28;122546;-71
2022/09/26 05:19:21;;;;;;;15.52;4.13;;;;;;;16.24;68.52;99568.16;4929069;28;119985;-72
2022/09/26 05:22:13;;;;;;;30.90;4.68;;;;;;;16.21;68.84;99569.19;4942784;28;120223;-72
2022/09/26 05:27:26;;;;;;;27.20;4.32;;;;;;;16.22;68.65;99560.38;4948997;28;119702;-72
2022/09/26 05:29:55;;;;;;;24.80;4.60;;;;;;;16.22;68.60;99565.91;4949651;28;120019;-71
2022/09/26 05:32:21;;;;;;;39.20;5.63;;;;;;;16.23;68.76;99561.88;4947045;28;119716;-71
2022/09/26 05:34:53;;;;;;;39.87;5.50;;;;;;;16.23;68.59;99556.34;4930443;28;119297;-72
2022/09/26 05:37:20;;;;;;;19.30;4.60;;;;;;;16.26;68.44;99555.31;4946540;28;120403;-72
2022/09/26 05:42:36;;;;;;;34.15;5.00;;;;;;;16.27;68.63;99545.75;4946996;28;119810;-71
2022/09/26 05:45:03;;;;;;;30.25;4.90;;;;;;;16.29;68.42;99542.44;4946150;28;119556;-71
2022/09/26 05:47:33;;;;;;;27.70;4.97;;;;;;;16.31;68.36;99550.97;4950535;28;119877;-72
2022/09/26 05:49:59;;;;;;;17.50;4.90;;;;;;;16.33;68.49;99551.25;4979221;28;120513;-71
2022/09/26 05:52:27;;;;;;;33.70;5.25;;;;;;;16.36;68.52;99552.22;4945879;28;119669;-72
2022/09/26 05:54:53;;;;;;;13.80;4.30;;;;;;;16.35;68.06;99545.94;4945620;28;120099;-71
2022/09/26 05:57:57;;;;;;;27.02;4.95;;;;;;;16.31;68.12;99539.16;4935616;28;119681;-71
2022/09/26 06:00:51;;;;;;;18.52;4.85;;;;;;;16.30;68.57;99532.13;4899921;28;119914;-72
2022/09/26 06:03:17;;;;;;;28.95;5.30;;;;;;;16.37;68.29;99543.41;4943024;28;120186;-72
2022/09/26 06:05:53;;;;;;;20.23;5.15;;;;;;;16.39;68.30;99535.31;4946865;28;119955;-70
2022/09/26 06:08:26;;;;;;;19.38;5.32;;;;;;;16.41;68.06;99526.50;4947046;28;119804;-72
2022/09/26 06:11:09;;;;;;;24.55;5.20;;;;;;;16.44;68.06;99531.75;4927417;28;119574;-71
2022/09/26 06:13:35;;;;;;;29.73;6.03;;;;;;;16.43;67.58;99518.44;4946775;28;119910;-72
2022/09/26 06:16:11;;;;;;;18.92;5.15;;;;;;;16.45;67.87;99527.72;4946618;28;119959;-72
2022/09/26 06:18:37;;;;;;;28.60;5.15;;;;;;;16.43;67.60;99521.94;4949505;28;120188;-72
2022/09/26 06:21:11;;;;;;;18.55;4.88;;;;;;;16.45;67.42;99519.41;4946221;28;120265;-71
2022/09/26 06:23:37;;;;;;;22.80;4.63;;;;;;;16.44;67.27;99514.41;4951346;28;120057;-71
2022/09/26 06:26:09;;;;;;;20.27;4.60;;;;;;;16.42;67.42;99517.69;4953113;28;120298;-71
2022/09/26 06:28:39;;;;;;;15.77;4.50;;;;;;;16.39;67.25;99513.19;4933889;28;119883;-70
2022/09/26 06:31:13;;;;;;;30.57;5.10;;;;;;;16.38;67.85;99506.16;4934137;28;119976;-71
2022/09/26 06:34:21;;;;;;;14.27;4.25;;;;;;;16.41;67.64;99516.19;4941091;28;119343;-70
2022/09/26 06:37:00;;;;;;;20.65;4.20;;;;;;;16.40;67.26;99498.09;4928711;28;120102;-71
2022/09/26 06:39:34;;;;;;;17.33;4.10;;;;;;;16.45;67.14;99502.06;4956920;28;119871;-71
2022/09/26 06:42:02;;;;;;;22.33;4.45;;;;;;;16.45;67.77;99491.72;4968050;28;119668;-70
2022/09/26 06:44:40;;;;;;;15.45;3.60;;;;;;;16.53;66.91;99489.88;4950164;28;119558;-70
2022/09/26 06:47:28;;;;;;;15.02;3.60;;;;;;;16.55;66.92;99486.59;4951383;28;119937;-71
2022/09/26 06:50:21;;;;;;;28.00;4.53;;;;;;;16.65;66.60;99484.97;4930635;28;120398;-71
2022/09/26 06:52:51;;;;;;;23.33;4.32;;;;;;;16.64;66.35;99472.41;4973873;28;120100;-71
2022/09/26 06:55:17;;;;;;;14.50;3.65;;;;;;;16.65;66.15;99484.22;4954430;28;119978;-71
2022/09/26 06:57:44;;;;;;;32.35;4.95;;;;;;;16.63;66.68;99479.22;4946306;28;119867;-71
2022/09/26 07:00:13;;;;;;;31.50;4.40;;;;;;;16.65;66.65;99475.94;4948465;28;120471;-71
2022/09/26 07:03:18;;;;;;;15.77;4.03;;;;;;;16.65;66.67;99464.84;4940846;28;120029;-71
2022/09/26 07:05:56;;;;;;;33.78;4.50;;;;;;;16.66;66.38;99469.13;4930363;28;119710;-70
2022/09/26 07:08:24;;;;;;;17.38;3.92;;;;;;;16.68;66.30;99474.91;4944541;28;120089;-71
2022/09/26 07:10:52;;;;;;;29.00;4.60;;;;;;;16.66;66.54;99466.34;4945130;28;120158;-70
2022/09/26 07:13:24;;;;;;;22.97;4.67;;;;;;;16.69;65.76;99465.34;4946285;28;119844;-70
2022/09/26 07:15:50;;;;;;;15.80;4.05;;;;;;;16.65;65.77;99467.63;4945023;28;119576;-71
2022/09/26 07:18:36;;;;;;;19.33;4.20;;;;;;;16.66;65.96;99466.34;4949343;28;119971;-71
2022/09/26 07:21:38;;;;;;;20.40;4.20;;;;;;;16.65;65.81;99462.09;4940943;28;120332;-71
2022/09/26 07:24:26;;;;;;;36.40;4.77;;;;;;;16.64;66.40;99455.78;4931613;28;119548;-72
2022/09/26 07:26:54;;;;;;;29.85;4.70;;;;;;;16.66;66.66;99456.06;4942280;28;120142;-72
2022/09/26 07:29:20;;;;;;;15.77;4.20;;;;;;;16.66;65.87;99453.28;4916171;28;123402;-71
2022/09/26 07:31:49;;;;;;;37.75;5.32;;;;;;;16.65;66.43;99462.84;4941255;28;119836;-71
2022/09/26 07:34:33;;;;;;;19.33;4.25;;;;;;;16.65;65.98;99456.53;4940334;28;120148;-71
2022/09/26 07:37:02;;;;;;;29.30;4.60;;;;;;;16.63;65.85;99454.31;4943244;28;121321;-72
2022/09/26 07:39:28;;;;;;;21.07;4.40;;;;;;;16.66;65.86;99452.50;4944489;28;120108;-71
2022/09/26 07:41:56;;;;;;;18.50;4.10;;;;;;;16.68;65.81;99450.00;4932746;28;121011;-71
2022/09/26 07:44:22;;;;;;;12.40;3.95;;;;;;;16.65;65.67;99437.91;4944926;28;119727;-71
2022/09/26 07:52:41;;;;;;;16.45;4.10;;;;;;;16.50;65.80;99454.94;4943185;28;119847;-70
2022/09/26 07:55:23;;;;;;;27.00;5.00;;;;;;;16.48;65.76;99453.97;4945985;28;119505;-71
2022/09/26 07:57:58;;;;;;;17.80;4.47;;;;;;;16.46;66.15;99453.75;4945965;28;120317;-71
2022/09/26 08:00:43;;;;;;;16.67;4.50;;;;;;;16.47;66.65;99453.22;4958087;28;120016;-72
2022/09/26 08:03:42;;;;;;;13.07;4.07;;;;;;;16.45;65.57;99443.94;4945996;28;119938;-71
2022/09/26 08:06:19;;;;;;;11.93;4.40;;;;;;;16.41;65.60;99440.72;4932530;28;119603;-72
2022/09/26 08:08:47;;;;;;;17.48;4.72;;;;;;;16.40;65.70;99442.75;4946855;28;120003;-72
2022/09/26 08:11:36;;;;;;;20.63;5.05;;;;;;;16.43;66.39;99441.69;4951063;28;120080;-71
2022/09/26 08:14:40;;;;;;;23.65;5.15;;;;;;;16.45;66.21;99439.16;4938003;28;120068;-72
2022/09/26 08:17:16;;;;;;;31.45;5.30;;;;;;;16.49;65.70;99436.09;4943253;28;120234;-71
2022/09/26 08:19:42;;;;;;;10.40;4.40;;;;;;;16.49;65.68;99444.38;4943368;28;120656;-71
2022/09/26 08:22:37;;;;;;;23.83;4.88;;;;;;;16.53;66.31;99434.53;4943520;28;119849;-72
2022/09/26 08:25:05;;;;;;;17.07;4.87;;;;;;;16.61;65.48;99422.88;4946994;28;119630;-72
2022/09/26 08:27:58;;;;;;;13.25;4.78;;;;;;;16.61;65.70;99429.16;4946052;28;119608;-72
2022/09/26 08:30:26;;;;;;;23.40;5.60;;;;;;;16.61;65.19;99428.41;4952776;28;119783;-72
2022/09/26 08:32:53;;;;;;;14.65;5.15;;;;;;;16.56;65.07;99425.19;4946906;28;120574;-72
2022/09/26 08:35:19;;;;;;;20.42;5.72;;;;;;;16.53;64.98;99428.97;4946961;28;119992;-72
2022/09/26 08:38:05;;;;;;;12.93;5.00;;;;;;;16.50;65.64;99427.25;4946267;28;120108;-72
2022/09/26 08:40:45;;;;;;;18.35;5.43;;;;;;;16.44;65.08;99432.13;4946436;28;120981;-72
2022/09/26 08:43:38;;;;;;;26.63;5.85;;;;;;;16.39;65.53;99423.88;4949464;28;119590;-72
2022/09/26 08:47:03;;;;;;;16.70;5.53;;;;;;;16.35;66.13;99424.19;4946284;28;119723;-72
2022/09/26 08:50:00;;;;;;;12.45;5.80;;;;;;;16.33;66.32;99435.03;4983586;28;120218;-71
2022/09/26 08:53:01;;;;;;;13.10;5.57;;;;;;;16.26;65.83;99428.03;4954465;28;119878;-72
2022/09/26 08:55:38;;;;;;;11.80;5.53;;;;;;;16.21;65.62;99420.56;4938164;28;119641;-72
2022/09/26 08:58:15;;;;;;;13.50;6.50;;;;;;;16.20;66.25;99423.84;4946030;28;120152;-72
2022/09/26 09:00:41;;;;;;;17.65;7.20;;;;;;;16.15;65.99;99419.88;4944971;28;119520;-72
2022/09/26 09:03:20;;;;;;;14.48;6.20;;;;;;;16.15;66.40;99416.34;4929477;28;120932;-72
2022/09/26 09:06:13;;;;;;;18.92;6.40;;;;;;;16.15;66.99;99410.81;4960718;28;120121;-71
2022/09/26 09:08:45;;;;;;;18.35;6.72;;;;;;;16.16;66.93;99404.03;4942052;28;119597;-72
2022/09/26 09:11:43;;;;;;;15.30;7.07;;;;;;;16.16;66.82;99409.56;4944954;28;119959;-71
2022/09/26 09:14:34;;;;;;;24.33;7.68;;;;;;;16.18;67.08;99405.00;4944202;28;119585;-72
2022/09/26 09:17:48;;;;;;;15.85;8.27;;;;;;;16.22;67.21;99407.47;4944456;28;120286;-72
2022/09/26 09:20:33;;;;;;;23.38;8.00;;;;;;;16.26;67.31;99399.63;4940721;28;120328;-72
2022/09/26 09:23:59;;;;;;;23.38;9.18;;;;;;;16.34;67.73;99400.56;4913821;28;121232;-72
2022/09/26 09:26:41;;;;;;;22.65;9.20;;;;;;;16.42;67.17;99395.16;4976245;28;119855;-72
2022/09/26 09:29:31;;;;;;;26.08;8.95;;;;;;;16.44;67.02;99392.63;4935878;28;120781;-72
2022/09/26 09:32:26;;;;;;;22.87;7.87;;;;;;;16.48;66.49;99388.28;4945050;28;120325;-72
2022/09/26 09:35:19;;;;;;;17.07;7.93;;;;;;;16.49;66.64;99386.28;4943749;28;120207;-72
2022/09/26 09:38:00;;;;;;;25.33;8.73;;;;;;;16.53;66.85;99381.94;4946108;28;119830;-72
2022/09/26 09:40:45;;;;;;;27.17;9.10;;;;;;;16.58;66.73;99383.91;4925715;28;120450;-72
2022/09/26 09:43:25;;;;;;;46.00;10.02;;;;;;;16.63;66.79;99376.78;4981761;28;120396;-72
2022/09/26 09:45:56;;;;;;;28.13;9.50;;;;;;;16.64;66.51;99367.22;4928981;28;120254;-72
2022/09/26 09:48:26;;;;;;;31.70;8.57;;;;;;;16.59;65.46;99370.81;4928433;28;122408;-72
2022/09/26 09:51:16;;;;;;;22.30;9.32;;;;;;;16.58;66.43;99370.06;4946597;28;120063;-72
2022/09/26 09:54:03;;;;;;;18.33;8.50;;;;;;;16.56;66.04;99360.75;4946022;28;119706;-72
2022/09/26 09:56:47;;;;;;;29.25;9.45;;;;;;;16.57;66.43;99363.03;4944354;28;119778;-72
2022/09/26 09:59:29;;;;;;;14.93;7.80;;;;;;;16.55;65.80;99364.81;4945771;28;120185;-72
2022/09/26 10:02:38;;;;;;;31.25;9.13;;;;;;;16.55;66.46;99360.00;4945350;28;119768;-72
2022/09/26 10:05:50;;;;;;;20.00;8.55;;;;;;;16.60;66.54;99344.63;4944771;28;120135;-72
2022/09/26 10:08:40;;;;;;;24.52;9.07;;;;;;;16.65;66.57;99338.25;4949772;28;120630;-72
2022/09/26 10:11:29;;;;;;;19.75;8.43;;;;;;;16.75;66.92;99338.63;4943633;28;120075;-72
2022/09/26 10:14:02;;;;;;;13.45;7.72;;;;;;;16.84;65.31;99338.28;4946812;28;119606;-71
2022/09/26 10:17:09;;;;;;;33.40;8.88;;;;;;;16.87;65.60;99340.00;4945567;28;119735;-72
2022/09/26 10:19:55;;;;;;;18.30;8.38;;;;;;;16.86;65.46;99335.72;4928665;28;119975;-72
2022/09/26 10:22:36;;;;;;;28.57;8.73;;;;;;;16.94;66.10;99327.53;4944938;28;119691;-72
2022/09/26 10:25:15;;;;;;;15.23;8.23;;;;;;;16.90;64.79;99327.09;4944298;28;120303;-72
2022/09/26 10:27:51;;;;;;;40.55;9.80;;;;;;;16.87;65.35;99317.84;4944040;28;120021;-72
2022/09/26 10:30:17;;;;;;;15.18;8.65;;;;;;;16.91;65.30;99326.59;4928324;28;120248;-72
2022/09/26 10:32:47;;;;;;;15.70;8.95;;;;;;;16.91;64.83;99315.50;4944364;28;119901;-72
2022/09/26 10:35:40;;;;;;;20.42;8.77;;;;;;;16.90;64.88;99313.25;4941639;28;119930;-72
2022/09/26 10:38:17;;;;;;;27.10;9.73;;;;;;;16.92;65.01;99319.03;4943755;28;122337;-72
2022/09/26 10:40:52;;;;;;;19.90;9.33;;;;;;;16.90;64.71;99314.00;4945159;28;120165;-72
2022/09/26 10:43:42;;;;;;;20.52;9.10;;;;;;;16.91;64.59;99307.19;4922930;28;119845;-71
2022/09/26 10:46:24;;;;;;;12.33;8.87;;;;;;;16.91;64.61;99312.72;4943183;28;120136;-72
2022/09/26 10:49:15;;;;;;;26.27;9.68;;;;;;;16.94;65.55;99311.69;4945667;28;120294;-72
2022/09/26 10:52:01;;;;;;;37.10;9.77;;;;;;;17.00;64.97;99314.34;4946411;28;119636;-72
2022/09/26 10:54:40;;;;;;;23.48;8.93;;;;;;;16.98;63.78;99303.81;4943918;28;119628;-72
2022/09/26 10:57:09;;;;;;;21.10;9.23;;;;;;;16.95;63.71;99312.41;4947734;28;119623;-72
2022/09/26 10:59:38;;;;;;;18.15;9.07;;;;;;;16.84;64.49;99296.75;4945140;28;120192;-72
2022/09/26 11:02:05;;;;;;;26.70;9.18;;;;;;;16.96;64.62;99302.84;4944720;28;120100;-71
2022/09/26 11:07:48;;;;;;;18.33;9.10;;;;;;;16.92;63.64;99292.06;4943767;28;119474;-72
2022/09/26 11:10:35;;;;;;;27.33;10.43;;;;;;;16.87;64.75;99295.69;4945725;28;119986;-72
2022/09/26 11:13:31;;;;;;;29.67;10.07;;;;;;;16.85;64.84;99295.47;4943426;28;119772;-71
2022/09/26 11:16:09;;;;;;;43.38;10.55;;;;;;;16.87;64.99;99290.16;4946429;28;120672;-72
2022/09/26 11:19:04;;;;;;;26.13;10.38;;;;;;;16.86;64.20;99294.19;4946958;28;119927;-72
2022/09/26 11:21:43;;;;;;;21.10;10.80;;;;;;;16.83;64.58;99284.16;4940022;28;119781;-71
2022/09/26 11:24:36;;;;;;;18.20;10.57;;;;;;;16.85;65.13;99281.63;4943525;28;120253;-72
2022/09/26 11:27:45;;;;;;;13.00;9.40;;;;;;;16.83;64.16;99290.47;4944242;28;119917;-72
2022/09/26 11:30:19;;;;;;;29.60;11.13;;;;;;;16.79;65.36;99278.91;4927035;28;119877;-72
2022/09/26 11:32:59;;;;;;;20.35;10.20;;;;;;;16.77;64.23;99278.69;4936536;28;120765;-72
2022/09/26 11:35:47;;;;;;;21.98;10.40;;;;;;;16.73;64.69;99280.28;4948928;28;119661;-71
2022/09/26 11:38:37;;;;;;;22.90;11.33;;;;;;;16.66;64.51;99265.03;4948088;28;120420;-72
2022/09/26 11:41:41;;;;;;;24.63;10.63;;;;;;;16.69;65.00;99279.84;4930259;28;120239;-72
2022/09/26 11:44:33;;;;;;;23.17;10.43;;;;;;;16.70;65.12;99273.03;4951948;28;120336;-72
2022/09/26 11:47:54;;;;;;;19.42;10.48;;;;;;;16.72;64.91;99262.19;4938229;28;119960;-72
2022/09/26 11:50:39;;;;;;;28.95;10.32;;;;;;;16.75;64.89;99272.19;4948638;28;119396;-72
2022/09/26 11:53:57;;;;;;;17.73;10.07;;;;;;;16.76;64.63;99257.06;4962705;28;120008;-72
2022/09/26 11:56:59;;;;;;;20.60;10.07;;;;;;;16.74;64.62;99265.16;4888666;28;120574;-72
2022/09/26 11:59:46;;;;;;;29.90;10.60;;;;;;;16.73;64.82;99247.81;4893044;28;120387;-72
2022/09/26 12:02:14;;;;;;;18.77;10.00;;;;;;;16.74;64.60;99249.28;4934055;28;119896;-71
2022/09/26 12:05:01;;;;;;;24.50;10.07;;;;;;;16.82;65.23;99246.69;4942099;28;120296;-72
2022/09/26 12:07:51;;;;;;;22.37;9.10;;;;;;;16.87;64.52;99237.53;4943639;28;120028;-72
2022/09/26 12:10:31;;;;;;;21.37;10.30;;;;;;;16.93;65.23;99237.44;4949157;28;120138;-72
2022/09/26 12:13:33;;;;;;;24.80;10.00;;;;;;;17.00;64.70;99231.25;4947001;28;120184;-72
2022/09/26 12:16:20;;;;;;;14.63;9.77;;;;;;;17.02;64.18;99228.72;4926620;28;120626;-72
2022/09/26 12:19:30;;;;;;;24.83;10.55;;;;;;;17.03;64.17;99227.44;4947479;28;120037;-72
2022/09/26 12:22:29;;;;;;;28.35;10.00;;;;;;;17.02;64.69;99218.38;4939589;28;119559;-72
2022/09/26 12:25:03;;;;;;;19.10;10.27;;;;;;;17.05;64.13;99227.66;4962208;28;120229;-71
2022/09/26 12:28:05;;;;;;;20.83;10.40;;;;;;;17.04;64.27;99226.91;4944663;28;120768;-71